Terminal Aerodrome Forecast
Issued by NWS

Home | Current Version | Previous Version | Text Only | Print | Product List | Glossary On
Versions: 1 2 3 4 5 6 7 8 9 10 11 12 13 14 15 16
000
FTUS46 KPDT 272300
TAFRDM
TAF
KRDM 272321Z 2800/2824 19012KT P6SM -SHRA BKN060 OVC080
     FM280300 19008KT P6SM -RA OVC050
     FM281200 20012KT P6SM -RA OVC050
     FM281500 18012G20KT P6SM -SHRA OVC050
     FM281800 21020G30KT P6SM -SHRA OVC070=

USA.gov is the U.S. government's official web portal to all federal, state and local government web resources and services.